createdAt,value
2023-08-29T00:04:04.409Z,3.67
2023-08-29T00:09:07.373Z,2.72
2023-08-29T00:14:09.949Z,3.90
2023-08-29T00:19:13.188Z,2.28
2023-08-29T00:24:16.164Z,1.45
2023-08-29T00:29:18.723Z,2.65
2023-08-29T00:34:21.221Z,2.28
2023-08-29T00:39:24.975Z,3.35
2023-08-29T00:44:27.858Z,2.53
2023-08-29T00:49:31.190Z,4.95
2023-08-29T00:54:34.271Z,6.68
2023-08-29T00:59:37.174Z,7.43
2023-08-29T01:04:39.639Z,8.85
2023-08-29T01:09:42.161Z,7.47
2023-08-29T01:15:01.096Z,6.65
2023-08-29T01:20:06.808Z,6.75
2023-08-29T01:25:31.652Z,6.43
2023-08-29T01:30:35.615Z,21.98
2023-08-29T01:35:43.912Z,12.23
2023-08-29T01:40:47.059Z,9.18
2023-08-29T01:45:49.604Z,3.85
2023-08-29T01:50:52.681Z,2.58
2023-08-29T01:55:56.786Z,3.70
2023-08-29T02:01:09.761Z,2.03
2023-08-29T02:06:22.383Z,2.58
2023-08-29T02:11:24.992Z,4.03
2023-08-29T02:16:27.577Z,1.85
2023-08-29T02:21:30.216Z,6.60
2023-08-29T02:26:32.719Z,8.88
2023-08-29T02:31:35.307Z,9.07
2023-08-29T02:36:37.833Z,10.15
2023-08-29T02:41:40.353Z,9.20
2023-08-29T02:46:42.929Z,10.57
2023-08-29T02:51:45.497Z,6.95
2023-08-29T02:56:48.001Z,5.80
2023-08-29T03:01:50.526Z,6.22
2023-08-29T03:06:53.339Z,3.53
2023-08-29T03:11:56.489Z,4.32
2023-08-29T03:16:59.030Z,3.70
2023-08-29T03:22:01.551Z,5.55
2023-08-29T03:27:05.575Z,4.95
2023-08-29T03:32:08.138Z,4.53
2023-08-29T03:37:10.633Z,6.97
2023-08-29T03:42:13.198Z,4.60
2023-08-29T03:47:15.672Z,6.75
2023-08-29T03:52:25.787Z,4.07
2023-08-29T03:57:28.851Z,4.13
2023-08-29T04:02:31.433Z,4.15
2023-08-29T04:07:33.919Z,6.00
2023-08-29T04:12:36.410Z,5.10
2023-08-29T04:17:39.011Z,4.80
2023-08-29T04:22:41.535Z,8.80
2023-08-29T04:27:45.412Z,5.15
2023-08-29T04:32:52.156Z,4.05
2023-08-29T04:37:55.933Z,4.18
2023-08-29T04:42:58.508Z,4.78
2023-08-29T04:48:01.072Z,5.18
2023-08-29T04:53:05.337Z,3.78
2023-08-29T04:58:08.380Z,2.10
2023-08-29T05:03:11.297Z,4.43
2023-08-29T05:08:13.910Z,5.38
2023-08-29T05:13:16.565Z,2.95
2023-08-29T05:18:19.223Z,6.70
2023-08-29T05:23:21.701Z,6.07
2023-08-29T05:28:24.297Z,4.25
2023-08-29T05:33:26.769Z,4.03
2023-08-29T05:38:29.447Z,5.88
2023-08-29T05:43:32.214Z,4.50
2023-08-29T05:48:34.736Z,5.20
2023-08-29T05:53:37.597Z,3.70
2023-08-29T06:03:42.669Z,7.40
2023-08-29T06:13:48.600Z,1.98
2023-08-29T06:18:51.185Z,2.78
2023-08-29T06:23:53.776Z,5.13
2023-08-29T06:33:58.857Z,3.40
2023-08-29T06:39:02.422Z,4.55
2023-08-29T06:44:05.187Z,8.70
2023-08-29T06:54:11.775Z,2.28
2023-08-29T07:04:18.117Z,3.35
2023-08-29T07:09:20.598Z,2.45
2023-08-29T07:14:23.041Z,0.85
2023-08-29T07:19:26.072Z,4.10
2023-08-29T07:24:28.567Z,3.70
2023-08-29T07:29:31.614Z,6.38
2023-08-29T07:34:34.227Z,2.63
2023-08-29T07:39:36.789Z,2.95
2023-08-29T07:44:39.261Z,5.07
2023-08-29T07:49:41.775Z,5.38
2023-08-29T07:59:46.832Z,6.80
2023-08-29T08:04:49.366Z,4.15
2023-08-29T08:14:54.947Z,3.85
2023-08-29T08:19:57.756Z,4.18
2023-08-29T08:25:00.264Z,2.88
2023-08-29T08:35:08.140Z,3.88
2023-08-29T08:40:12.545Z,3.15
2023-08-29T08:45:16.116Z,4.57
2023-08-29T08:50:19.157Z,3.53
2023-08-29T08:55:21.749Z,4.93
2023-08-29T09:00:24.249Z,1.98
2023-08-29T09:05:26.972Z,2.72
2023-08-29T09:10:34.814Z,2.95
2023-08-29T09:15:39.631Z,2.22
2023-08-29T09:20:45.275Z,1.98
2023-08-29T09:25:54.583Z,3.20
2023-08-29T09:31:05.743Z,3.05
2023-08-29T09:36:08.822Z,2.28
2023-08-29T09:41:17.505Z,2.60
2023-08-29T09:46:26.029Z,5.05
2023-08-29T09:51:31.535Z,1.92
2023-08-29T09:56:35.919Z,2.47
2023-08-29T10:01:41.047Z,3.13
2023-08-29T10:06:46.457Z,4.45
2023-08-29T10:11:54.853Z,3.72
2023-08-29T10:17:00.278Z,5.47
2023-08-29T10:22:03.646Z,4.05
2023-08-29T10:27:06.198Z,3.03
2023-08-29T10:32:09.188Z,3.97
2023-08-29T10:37:20.729Z,4.97
2023-08-29T10:42:23.311Z,6.97
2023-08-29T10:47:28.323Z,2.97
2023-08-29T10:52:41.735Z,4.22
2023-08-29T10:57:44.361Z,6.05
2023-08-29T11:02:46.888Z,2.63
2023-08-29T11:07:49.518Z,2.42
2023-08-29T11:13:09.528Z,2.05
2023-08-29T11:18:22.565Z,2.63
2023-08-29T11:23:27.084Z,3.38
2023-08-29T11:28:32.377Z,5.32
2023-08-29T11:33:36.686Z,3.13
2023-08-29T11:38:39.369Z,3.15
2023-08-29T11:44:51.486Z,7.05
2023-08-29T11:49:15.126Z,3.05
2023-08-29T11:54:46.678Z,1.45
2023-08-29T11:59:51.935Z,1.02
2023-08-29T12:04:58.456Z,4.38
2023-08-29T12:10:12.147Z,6.88
2023-08-29T12:15:27.638Z,5.60
2023-08-29T12:20:35.135Z,2.67
2023-08-29T12:25:37.652Z,3.38
2023-08-29T12:30:40.123Z,3.47
2023-08-29T12:35:42.579Z,5.22
2023-08-29T12:40:45.620Z,3.65
2023-08-29T12:45:58.084Z,3.92
2023-08-29T12:51:02.685Z,4.05
2023-08-29T12:56:05.385Z,6.80
2023-08-29T13:01:08.039Z,2.05
2023-08-29T13:06:10.694Z,7.32
2023-08-29T13:11:13.284Z,5.82
2023-08-29T13:16:19.463Z,3.10
2023-08-29T13:21:22.044Z,3.40
2023-08-29T13:26:24.855Z,5.35
2023-08-29T13:31:27.548Z,4.53
2023-08-29T13:36:32.740Z,6.57
2023-08-29T13:41:35.643Z,2.42
2023-08-29T13:46:38.480Z,8.95
2023-08-29T13:51:41.095Z,12.35
2023-08-29T13:56:45.775Z,6.07
2023-08-29T14:01:48.270Z,6.57
2023-08-29T14:06:50.895Z,6.85
2023-08-29T14:11:53.394Z,7.00
2023-08-29T14:16:56.081Z,10.82
2023-08-29T14:21:58.642Z,5.63
2023-08-29T14:27:01.132Z,3.67
2023-08-29T14:32:03.672Z,5.75
2023-08-29T14:37:06.447Z,5.25
2023-08-29T14:42:09.548Z,4.60
2023-08-29T14:47:12.095Z,9.63
2023-08-29T14:52:14.498Z,14.82
2023-08-29T14:57:17.118Z,11.02
2023-08-29T15:02:20.624Z,4.03
2023-08-29T15:07:24.980Z,3.97
2023-08-29T15:12:27.460Z,3.80
2023-08-29T15:17:31.276Z,2.65
2023-08-29T15:22:33.886Z,4.43
2023-08-29T15:27:36.801Z,6.43
2023-08-29T15:32:39.486Z,5.85
2023-08-29T15:37:42.013Z,3.72
2023-08-29T15:42:45.474Z,5.18
2023-08-29T15:47:48.090Z,2.70
2023-08-29T15:52:50.598Z,6.95
2023-08-29T15:57:53.111Z,3.53
2023-08-29T16:02:55.695Z,4.75
2023-08-29T16:07:58.669Z,4.32
2023-08-29T16:13:01.674Z,4.90
2023-08-29T16:18:05.844Z,4.70
2023-08-29T16:23:08.978Z,12.68
2023-08-29T16:28:13.826Z,21.35
2023-08-29T16:33:16.602Z,43.20
2023-08-29T16:38:19.280Z,60.67
2023-08-29T16:43:21.927Z,61.30
2023-08-29T16:48:24.523Z,40.90
2023-08-29T16:53:27.149Z,21.02
2023-08-29T16:58:29.940Z,25.10
2023-08-29T17:03:32.711Z,16.48
2023-08-29T17:08:35.454Z,17.40
2023-08-29T17:13:37.959Z,12.38
2023-08-29T17:18:40.562Z,8.68
2023-08-29T17:23:43.124Z,11.32
2023-08-29T17:28:45.633Z,7.00
2023-08-29T17:33:48.233Z,7.13
2023-08-29T17:38:50.769Z,8.35
2023-08-29T17:43:53.236Z,6.15
2023-08-29T17:48:55.754Z,8.27
2023-08-29T17:53:58.242Z,9.35
2023-08-29T17:59:00.756Z,10.00
2023-08-29T18:04:08.364Z,9.60
2023-08-29T18:09:10.848Z,9.15
2023-08-29T18:14:13.375Z,8.77
2023-08-29T18:19:18.943Z,10.43
2023-08-29T18:24:21.698Z,7.75
2023-08-29T18:29:24.176Z,9.93
2023-08-29T18:34:26.620Z,5.30
2023-08-29T18:39:29.070Z,8.32
2023-08-29T18:44:31.635Z,10.02
2023-08-29T18:49:35.773Z,8.85
2023-08-29T18:54:38.261Z,8.80
2023-08-29T18:59:40.738Z,8.32
2023-08-29T19:04:44.414Z,8.30
2023-08-29T19:09:46.879Z,6.68
2023-08-29T19:14:49.492Z,5.80
2023-08-29T19:19:52.061Z,6.90
2023-08-29T19:24:55.781Z,5.60
2023-08-29T19:29:58.489Z,5.60
2023-08-29T19:35:00.977Z,5.65
2023-08-29T19:40:03.848Z,3.95
2023-08-29T19:45:07.239Z,3.72
2023-08-29T19:50:10.587Z,5.90
2023-08-29T19:55:13.083Z,5.28
2023-08-29T20:00:16.101Z,2.90
2023-08-29T20:05:18.626Z,4.20
2023-08-29T20:10:21.108Z,6.05
2023-08-29T20:15:23.561Z,4.20
2023-08-29T20:20:27.006Z,3.55
2023-08-29T20:25:29.824Z,4.78
2023-08-29T20:30:35.588Z,3.20
2023-08-29T20:35:38.842Z,2.97
2023-08-29T20:40:42.860Z,4.28
2023-08-29T20:45:45.387Z,3.80
2023-08-29T20:50:51.250Z,6.43
2023-08-29T20:55:53.804Z,7.30
2023-08-29T21:06:20.514Z,5.32
2023-08-29T21:11:23.114Z,6.30
2023-08-29T21:16:25.758Z,6.97
2023-08-29T21:21:28.314Z,7.50
2023-08-29T21:26:31.187Z,8.73
2023-08-29T21:31:33.760Z,9.52
2023-08-29T21:36:38.571Z,7.55
2023-08-29T21:41:41.577Z,10.13
2023-08-29T21:46:44.984Z,4.63
2023-08-29T21:51:48.497Z,5.38
2023-08-29T21:56:51.124Z,6.88
2023-08-29T22:01:54.918Z,5.32
2023-08-29T22:06:57.493Z,4.53
2023-08-29T22:11:59.979Z,2.40
2023-08-29T22:17:02.970Z,3.45
2023-08-29T22:22:05.472Z,2.63
2023-08-29T22:27:08.134Z,3.97
2023-08-29T22:32:10.644Z,3.50
2023-08-29T22:37:16.340Z,2.97
2023-08-29T22:42:18.914Z,3.40
2023-08-29T22:47:21.440Z,4.95
2023-08-29T22:52:24.781Z,6.65
2023-08-29T22:57:27.270Z,3.92
2023-08-29T23:02:29.901Z,4.38
2023-08-29T23:07:32.660Z,7.82
2023-08-29T23:12:36.176Z,7.32
2023-08-29T23:17:38.727Z,6.95
2023-08-29T23:22:41.253Z,7.63
2023-08-29T23:27:44.143Z,7.93
2023-08-29T23:32:49.422Z,8.63
2023-08-29T23:37:52.069Z,8.25
2023-08-29T23:42:54.775Z,5.68
2023-08-29T23:47:57.281Z,8.50
2023-08-29T23:53:00.465Z,4.65
2023-08-29T23:58:03.024Z,5.78
